createdAt,value
2017-07-10T00:00:15.445Z,18.90
2017-07-10T00:02:42.930Z,18.90
2017-07-10T00:05:10.435Z,18.90
2017-07-10T00:07:37.979Z,18.90
2017-07-10T00:10:05.499Z,18.80
2017-07-10T00:12:32.996Z,18.70
2017-07-10T00:15:00.500Z,18.60
2017-07-10T00:17:28.362Z,18.60
2017-07-10T00:19:55.871Z,18.50
2017-07-10T00:22:23.360Z,18.40
2017-07-10T00:24:50.888Z,18.30
2017-07-10T00:27:18.404Z,18.30
2017-07-10T00:29:46.181Z,18.20
2017-07-10T00:32:13.699Z,18.20
2017-07-10T00:34:41.209Z,18.20
2017-07-10T00:37:08.722Z,18.20
2017-07-10T00:39:36.228Z,18.10
2017-07-10T00:42:04.090Z,18.20
2017-07-10T00:44:31.595Z,18.10
2017-07-10T00:46:59.108Z,18.00
2017-07-10T00:49:26.628Z,18.00
2017-07-10T00:51:54.139Z,17.90
2017-07-10T00:54:21.984Z,17.90
2017-07-10T00:56:49.489Z,17.80
2017-07-10T00:59:17.002Z,17.80
2017-07-10T01:01:44.511Z,17.70
2017-07-10T01:04:12.016Z,17.70
2017-07-10T01:06:39.825Z,17.60
2017-07-10T01:09:07.332Z,17.60
2017-07-10T01:11:34.834Z,17.50
2017-07-10T01:14:02.356Z,17.40
2017-07-10T01:16:29.869Z,17.30
2017-07-10T01:18:57.683Z,17.30
2017-07-10T01:21:25.187Z,17.30
2017-07-10T01:23:52.686Z,17.40
2017-07-10T01:26:20.206Z,17.40
2017-07-10T01:28:47.712Z,17.40
2017-07-10T01:31:15.490Z,17.40
2017-07-10T01:33:43.009Z,17.30
2017-07-10T01:36:10.501Z,17.40
2017-07-10T01:38:38.374Z,17.30
2017-07-10T01:41:05.887Z,17.30
2017-07-10T01:43:33.387Z,17.30
2017-07-10T01:46:01.257Z,17.20
2017-07-10T01:48:28.768Z,17.20
2017-07-10T01:50:56.277Z,17.10
2017-07-10T01:53:23.795Z,17.00
2017-07-10T01:55:52.058Z,17.00
2017-07-10T01:58:19.584Z,17.00
2017-07-10T02:00:47.108Z,17.00
2017-07-10T02:03:14.991Z,17.00
2017-07-10T02:05:42.495Z,17.10
2017-07-10T02:08:09.998Z,17.10
2017-07-10T02:10:37.579Z,17.10
2017-07-10T02:13:05.086Z,17.00
2017-07-10T02:15:32.604Z,17.00
2017-07-10T02:18:00.103Z,16.90
2017-07-10T02:20:28.024Z,16.90
2017-07-10T02:22:55.521Z,16.90
2017-07-10T02:25:23.043Z,16.80
2017-07-10T02:27:51.511Z,16.80
2017-07-10T02:30:19.017Z,16.80
2017-07-10T02:32:46.778Z,16.80
2017-07-10T02:35:14.306Z,16.80
2017-07-10T02:37:41.799Z,16.80
2017-07-10T02:40:09.299Z,16.90
2017-07-10T02:42:36.816Z,16.90
2017-07-10T02:45:04.583Z,16.90
2017-07-10T02:47:32.094Z,16.90
2017-07-10T02:49:59.652Z,16.90
2017-07-10T02:52:27.172Z,16.90
2017-07-10T02:54:54.756Z,16.90
2017-07-10T02:57:22.273Z,16.90
2017-07-10T02:59:49.774Z,16.90
2017-07-10T03:02:17.303Z,16.80
2017-07-10T03:04:44.816Z,16.80
2017-07-10T03:07:12.341Z,16.80
2017-07-10T03:09:39.863Z,16.80
2017-07-10T03:12:07.383Z,16.90
2017-07-10T03:14:34.886Z,16.90
2017-07-10T03:17:02.651Z,16.90
2017-07-10T03:19:30.162Z,16.90
2017-07-10T03:21:57.675Z,16.90
2017-07-10T03:24:25.171Z,16.90
2017-07-10T03:26:52.711Z,17.00
2017-07-10T03:29:21.360Z,17.00
2017-07-10T03:31:48.863Z,17.00
2017-07-10T03:34:17.136Z,17.00
2017-07-10T03:36:44.658Z,17.00
2017-07-10T03:39:12.154Z,17.00
2017-07-10T03:41:40.773Z,17.00
2017-07-10T03:44:08.290Z,17.00
2017-07-10T03:46:35.903Z,17.10
2017-07-10T03:49:03.426Z,17.10
2017-07-10T03:51:30.952Z,17.10
2017-07-10T03:53:58.726Z,17.10
2017-07-10T03:56:26.238Z,17.20
2017-07-10T03:58:53.751Z,17.20
2017-07-10T04:01:21.277Z,17.20
2017-07-10T04:03:48.765Z,17.30
2017-07-10T04:06:17.568Z,17.30
2017-07-10T04:08:45.096Z,17.40
2017-07-10T04:11:12.625Z,17.40
2017-07-10T04:13:40.134Z,17.40
2017-07-10T04:16:07.641Z,17.40
2017-07-10T04:18:35.504Z,17.50
2017-07-10T04:21:03.073Z,17.50
2017-07-10T04:23:30.582Z,17.40
2017-07-10T04:25:58.127Z,17.50
2017-07-10T04:28:25.630Z,17.50
2017-07-10T04:30:53.423Z,17.50
2017-07-10T04:33:20.915Z,17.60
2017-07-10T04:35:48.406Z,17.70
2017-07-10T04:38:16.695Z,18.00
2017-07-10T04:40:44.206Z,17.90
2017-07-10T04:43:12.038Z,18.10
2017-07-10T04:45:39.557Z,18.20
2017-07-10T04:48:07.297Z,18.20
2017-07-10T04:50:35.494Z,18.30
2017-07-10T04:53:03.002Z,18.40
2017-07-10T04:55:30.862Z,18.40
2017-07-10T04:57:59.699Z,18.40
2017-07-10T05:00:28.030Z,18.40
2017-07-10T05:02:56.099Z,18.30
2017-07-10T05:05:23.605Z,18.40
2017-07-10T05:07:51.099Z,18.60
2017-07-10T05:10:18.628Z,18.60
2017-07-10T05:12:46.137Z,18.70
2017-07-10T05:15:13.658Z,18.70
2017-07-10T05:17:41.456Z,18.80
2017-07-10T05:20:09.001Z,19.00
2017-07-10T05:22:36.518Z,19.10
2017-07-10T05:25:04.351Z,19.20
2017-07-10T05:27:31.846Z,19.20
2017-07-10T05:30:00.132Z,19.20
2017-07-10T05:32:27.656Z,19.20
2017-07-10T05:34:55.157Z,19.20
2017-07-10T05:37:22.961Z,19.30
2017-07-10T05:39:50.483Z,19.30
2017-07-10T05:42:17.989Z,19.40
2017-07-10T05:44:45.527Z,19.50
2017-07-10T05:47:13.051Z,19.50
2017-07-10T05:49:40.847Z,19.60
2017-07-10T05:52:08.370Z,19.60
2017-07-10T05:54:35.880Z,19.70
2017-07-10T05:57:03.445Z,19.70
2017-07-10T05:59:30.951Z,19.80
2017-07-10T06:01:59.540Z,19.90
2017-07-10T06:04:27.045Z,20.10
2017-07-10T06:06:54.546Z,20.20
2017-07-10T06:09:22.064Z,20.40
2017-07-10T06:11:49.565Z,20.40
2017-07-10T06:14:17.387Z,20.40
2017-07-10T06:16:44.877Z,20.50
2017-07-10T06:19:12.382Z,20.50
2017-07-10T06:21:39.925Z,20.60
2017-07-10T06:24:08.197Z,20.70
2017-07-10T06:26:36.009Z,20.70
2017-07-10T06:29:03.530Z,20.80
2017-07-10T06:31:31.033Z,20.80
2017-07-10T06:33:58.574Z,20.80
2017-07-10T06:36:26.068Z,20.80
2017-07-10T06:38:53.858Z,20.80
2017-07-10T06:41:21.472Z,20.90
2017-07-10T06:43:48.969Z,21.10
2017-07-10T06:46:16.475Z,21.20
2017-07-10T06:48:44.002Z,21.30
2017-07-10T06:51:11.828Z,21.50
2017-07-10T06:53:39.348Z,21.50
2017-07-10T06:56:06.853Z,21.60
2017-07-10T06:58:34.447Z,21.70
2017-07-10T07:01:02.712Z,21.60
2017-07-10T07:03:30.521Z,21.60
2017-07-10T07:05:58.023Z,21.60
2017-07-10T07:08:25.531Z,21.60
2017-07-10T07:10:53.055Z,21.70
2017-07-10T07:13:20.565Z,21.80
2017-07-10T07:15:48.351Z,21.80
2017-07-10T07:18:15.893Z,21.80
2017-07-10T07:20:43.409Z,21.80
2017-07-10T07:23:10.927Z,21.90
2017-07-10T07:25:38.445Z,21.90
2017-07-10T07:28:07.032Z,22.00
2017-07-10T07:30:34.521Z,22.00
2017-07-10T07:33:02.076Z,22.10
2017-07-10T07:35:29.609Z,22.20
2017-07-10T07:37:57.103Z,22.30
2017-07-10T07:40:24.946Z,22.40
2017-07-10T07:42:52.475Z,22.40
2017-07-10T07:45:20.081Z,22.40
2017-07-10T07:47:47.590Z,22.50
2017-07-10T07:50:15.107Z,22.60
2017-07-10T07:52:42.966Z,22.60
2017-07-10T07:55:10.478Z,22.60
2017-07-10T07:57:37.972Z,22.60
2017-07-10T08:00:05.486Z,22.60
2017-07-10T08:02:33.005Z,22.60
2017-07-10T08:05:00.872Z,22.50
2017-07-10T08:07:28.391Z,22.50
2017-07-10T08:09:56.704Z,22.40
2017-07-10T08:12:24.225Z,22.30
2017-07-10T08:14:52.492Z,22.40
2017-07-10T08:17:21.061Z,22.40
2017-07-10T08:19:48.672Z,22.30
2017-07-10T08:22:16.169Z,22.40
2017-07-10T08:24:43.705Z,22.30
2017-07-10T08:27:11.211Z,22.20
2017-07-10T08:29:38.997Z,22.10
2017-07-10T08:32:07.267Z,22.10
2017-07-10T08:34:35.581Z,22.10
2017-07-10T08:37:03.098Z,22.00
2017-07-10T08:39:30.636Z,22.00
2017-07-10T08:41:58.575Z,21.90
2017-07-10T08:44:26.091Z,21.90
2017-07-10T08:46:54.373Z,21.70
2017-07-10T08:49:22.665Z,21.60
2017-07-10T08:51:50.188Z,21.50
2017-07-10T08:54:17.965Z,21.40
2017-07-10T08:56:45.485Z,21.30
2017-07-10T08:59:12.999Z,21.10
2017-07-10T09:01:41.268Z,20.80
2017-07-10T09:04:09.580Z,20.60
2017-07-10T09:06:37.550Z,20.60
2017-07-10T09:09:05.045Z,20.50
2017-07-10T09:11:32.566Z,20.40
2017-07-10T09:14:00.082Z,20.30
2017-07-10T09:16:27.685Z,20.20
2017-07-10T09:18:55.542Z,20.10
2017-07-10T09:21:23.117Z,20.10
2017-07-10T09:23:50.643Z,19.90
2017-07-10T09:26:18.950Z,19.70
2017-07-10T09:28:46.473Z,19.70
2017-07-10T09:31:15.094Z,19.40
2017-07-10T09:33:42.606Z,19.40
2017-07-10T09:36:10.128Z,19.50
2017-07-10T09:38:37.640Z,19.50
2017-07-10T09:41:05.923Z,19.50
2017-07-10T09:43:33.803Z,19.50
2017-07-10T09:46:01.322Z,19.50
2017-07-10T09:48:28.834Z,19.50
2017-07-10T09:50:58.905Z,19.60
2017-07-10T09:53:27.174Z,19.70
2017-07-10T09:55:55.111Z,19.60
2017-07-10T09:58:22.616Z,19.70
2017-07-10T10:00:50.219Z,19.50
2017-07-10T10:03:17.735Z,19.50
2017-07-10T10:05:45.337Z,19.40
2017-07-10T10:08:13.194Z,19.50
2017-07-10T10:10:40.726Z,19.70
2017-07-10T10:13:08.244Z,19.70
2017-07-10T10:15:35.765Z,19.60
2017-07-10T10:18:03.276Z,19.50
2017-07-10T10:20:31.094Z,19.60
2017-07-10T10:22:58.606Z,19.70
2017-07-10T10:25:26.102Z,19.70
2017-07-10T10:27:53.629Z,19.80
2017-07-10T10:30:21.163Z,19.80
2017-07-10T10:32:48.997Z,19.90
2017-07-10T10:35:16.568Z,19.90
2017-07-10T10:37:44.129Z,19.90
2017-07-10T10:40:11.668Z,20.00
2017-07-10T10:42:39.187Z,20.00
2017-07-10T10:45:06.968Z,20.00
2017-07-10T10:47:34.500Z,20.10
2017-07-10T10:50:02.011Z,20.10
2017-07-10T10:52:29.533Z,20.20
2017-07-10T10:54:57.031Z,20.30
2017-07-10T10:57:24.919Z,20.30
2017-07-10T10:59:52.444Z,20.30
2017-07-10T11:02:20.718Z,20.30
2017-07-10T11:04:49.015Z,20.40
2017-07-10T11:07:16.529Z,20.30
2017-07-10T11:09:44.369Z,20.50
2017-07-10T11:12:11.901Z,20.50
2017-07-10T11:14:43.164Z,20.60
2017-07-10T11:17:10.689Z,20.70
2017-07-10T11:19:38.956Z,20.40
2017-07-10T11:22:07.516Z,20.40
2017-07-10T11:24:35.945Z,20.30
2017-07-10T11:27:04.693Z,20.40
2017-07-10T11:29:32.217Z,20.50
2017-07-10T11:31:59.735Z,20.60
2017-07-10T11:34:28.333Z,20.90
2017-07-10T11:36:55.855Z,20.90
2017-07-10T11:39:23.361Z,21.00
2017-07-10T11:41:50.866Z,20.90
2017-07-10T11:44:18.375Z,20.90
2017-07-10T11:46:46.251Z,21.10
2017-07-10T11:49:13.753Z,21.20
2017-07-10T11:51:41.309Z,21.30
2017-07-10T11:54:08.936Z,21.40
2017-07-10T11:56:36.434Z,21.40
2017-07-10T11:59:03.928Z,21.40
2017-07-10T12:01:31.849Z,21.40
2017-07-10T12:03:59.355Z,21.30
2017-07-10T12:06:26.856Z,21.30
2017-07-10T12:08:54.363Z,21.30
2017-07-10T12:11:21.895Z,21.20
2017-07-10T12:13:49.722Z,21.20
2017-07-10T12:16:17.231Z,21.20
2017-07-10T12:18:44.744Z,21.30
2017-07-10T12:21:12.277Z,21.30
2017-07-10T12:23:39.782Z,21.30
2017-07-10T12:26:07.744Z,21.10
2017-07-10T12:28:35.289Z,21.00
2017-07-10T12:31:02.796Z,20.90
2017-07-10T12:33:30.336Z,20.80
2017-07-10T12:35:57.857Z,20.90
2017-07-10T12:38:25.634Z,21.00
2017-07-10T12:40:53.160Z,21.00
2017-07-10T12:43:21.440Z,21.00
2017-07-10T12:45:49.744Z,21.10
2017-07-10T12:48:17.305Z,21.10
2017-07-10T12:50:45.163Z,21.00
2017-07-10T12:53:12.672Z,20.70
2017-07-10T12:55:40.179Z,20.70
2017-07-10T12:58:07.698Z,20.70
2017-07-10T13:00:35.210Z,20.60
2017-07-10T13:03:03.000Z,20.60
2017-07-10T13:05:30.521Z,20.60
2017-07-10T13:07:58.039Z,20.60
2017-07-10T13:10:25.573Z,20.70
2017-07-10T13:12:53.113Z,20.70
2017-07-10T13:15:20.978Z,20.70
2017-07-10T13:17:48.490Z,20.70
2017-07-10T13:20:16.007Z,20.60
2017-07-10T13:22:43.567Z,20.60
2017-07-10T13:25:11.071Z,20.70
2017-07-10T13:27:38.910Z,20.80
2017-07-10T13:30:06.422Z,21.00
2017-07-10T13:32:33.962Z,21.20
2017-07-10T13:35:02.261Z,21.30
2017-07-10T13:37:29.785Z,21.30
2017-07-10T13:39:57.601Z,21.20
2017-07-10T13:42:25.110Z,21.30
2017-07-10T13:44:52.632Z,21.30
2017-07-10T13:47:20.196Z,21.40
2017-07-10T13:49:47.707Z,21.30
2017-07-10T13:52:16.426Z,21.30
2017-07-10T13:54:43.975Z,21.30
2017-07-10T13:57:11.527Z,21.30
2017-07-10T13:59:39.070Z,21.20
2017-07-10T14:02:06.582Z,21.20
2017-07-10T14:04:34.368Z,21.20
2017-07-10T14:07:01.887Z,21.20
2017-07-10T14:09:29.405Z,21.30
2017-07-10T14:12:07.242Z,21.40
2017-07-10T14:17:27.522Z,21.70
2017-07-10T14:19:55.035Z,22.00
2017-07-10T14:22:22.557Z,22.20
2017-07-10T14:24:50.097Z,22.00
2017-07-10T14:27:17.623Z,22.40
2017-07-10T14:29:45.424Z,22.60
2017-07-10T14:32:12.921Z,22.90
2017-07-10T14:34:40.447Z,23.20
2017-07-10T14:37:07.974Z,23.30
2017-07-10T14:39:35.484Z,23.50
2017-07-10T14:42:03.274Z,23.70
2017-07-10T14:44:30.796Z,23.30
2017-07-10T14:46:58.306Z,23.10
2017-07-10T14:49:25.832Z,23.10
2017-07-10T14:51:53.338Z,23.10
2017-07-10T14:54:21.107Z,23.30
2017-07-10T14:56:48.630Z,23.50
2017-07-10T14:59:16.143Z,23.50
2017-07-10T15:01:43.652Z,23.40
2017-07-10T15:04:11.165Z,23.40
2017-07-10T15:06:38.961Z,23.20
2017-07-10T15:09:06.488Z,22.90
2017-07-10T15:11:33.998Z,23.10
2017-07-10T15:14:01.531Z,23.30
2017-07-10T15:16:29.068Z,23.50
2017-07-10T15:18:57.206Z,23.50
2017-07-10T15:21:24.724Z,23.40
2017-07-10T15:23:52.327Z,23.20
2017-07-10T15:26:19.868Z,23.00
2017-07-10T15:28:47.452Z,22.70
2017-07-10T15:31:15.240Z,22.50
2017-07-10T15:33:42.756Z,22.40
2017-07-10T15:36:10.265Z,22.40
2017-07-10T15:38:37.811Z,22.40
2017-07-10T15:41:05.333Z,22.40
2017-07-10T15:43:33.126Z,22.40
2017-07-10T15:46:00.668Z,22.40
2017-07-10T15:48:28.279Z,22.40
2017-07-10T15:50:55.806Z,22.50
2017-07-10T15:53:23.305Z,22.50
2017-07-10T15:55:51.103Z,22.50
2017-07-10T15:58:18.610Z,22.40
2017-07-10T16:00:46.123Z,22.40
2017-07-10T16:03:13.642Z,22.30
2017-07-10T16:05:41.174Z,22.30
2017-07-10T16:08:08.963Z,22.30
2017-07-10T16:10:36.546Z,22.30
2017-07-10T16:13:04.058Z,22.30
2017-07-10T16:15:31.583Z,22.30
2017-07-10T16:17:59.110Z,22.20
2017-07-10T16:20:26.909Z,22.20
2017-07-10T16:22:54.403Z,22.20
2017-07-10T16:25:21.909Z,22.20
2017-07-10T16:27:49.430Z,22.30
2017-07-10T16:30:16.953Z,22.30
2017-07-10T16:32:44.737Z,22.40
2017-07-10T16:35:12.265Z,22.30
2017-07-10T16:37:39.822Z,22.40
2017-07-10T16:40:07.383Z,22.40
2017-07-10T16:42:34.913Z,22.60
2017-07-10T16:45:02.694Z,22.80
2017-07-10T16:47:30.209Z,23.10
2017-07-10T16:49:57.732Z,23.60
2017-07-10T16:52:25.255Z,24.10
2017-07-10T16:54:52.783Z,25.10
2017-07-10T16:57:20.577Z,26.30
2017-07-10T16:59:48.085Z,27.10
2017-07-10T17:02:15.603Z,28.20
2017-07-10T17:04:43.126Z,28.60
2017-07-10T17:07:10.638Z,29.10
2017-07-10T17:09:38.433Z,29.70
2017-07-10T17:12:05.948Z,29.90
2017-07-10T17:14:33.471Z,31.00
2017-07-10T17:17:01.016Z,31.80
2017-07-10T17:19:28.531Z,31.60
2017-07-10T17:21:56.327Z,32.10
2017-07-10T17:24:23.840Z,33.30
2017-07-10T17:26:51.372Z,33.70
2017-07-10T17:29:18.891Z,33.70
2017-07-10T17:31:46.406Z,33.50
2017-07-10T17:34:14.222Z,32.30
2017-07-10T17:36:41.731Z,31.20
2017-07-10T17:39:09.240Z,29.70
2017-07-10T17:41:36.775Z,28.70
2017-07-10T17:44:04.351Z,27.60
2017-07-10T17:46:32.143Z,27.30
2017-07-10T17:48:59.636Z,28.50
2017-07-10T17:51:27.142Z,30.60
2017-07-10T17:53:54.663Z,32.00
2017-07-10T17:56:22.185Z,33.20
2017-07-10T17:58:49.983Z,33.50
2017-07-10T18:01:17.498Z,33.70
2017-07-10T18:03:45.044Z,33.90
2017-07-10T18:06:12.627Z,33.40
2017-07-10T18:08:40.179Z,32.80
2017-07-10T18:11:07.940Z,32.00
2017-07-10T18:13:35.442Z,30.90
2017-07-10T18:16:02.950Z,29.80
2017-07-10T18:18:30.487Z,29.10
2017-07-10T18:20:58.024Z,28.30
2017-07-10T18:23:25.792Z,27.60
2017-07-10T18:25:53.315Z,27.00
2017-07-10T18:28:20.842Z,26.50
2017-07-10T18:30:48.379Z,26.00
2017-07-10T18:33:15.891Z,25.40
2017-07-10T18:35:43.679Z,25.00
2017-07-10T18:38:11.189Z,24.70
2017-07-10T18:40:38.713Z,24.40
2017-07-10T18:43:06.509Z,24.20
2017-07-10T18:45:34.048Z,24.20
2017-07-10T18:48:01.594Z,24.10
2017-07-10T18:50:29.404Z,24.10
2017-07-10T18:52:56.928Z,23.90
2017-07-10T18:55:24.478Z,23.70
2017-07-10T18:57:52.001Z,23.70
2017-07-10T19:00:19.519Z,23.60
2017-07-10T19:02:47.312Z,23.60
2017-07-10T19:05:14.860Z,23.60
2017-07-10T19:07:42.398Z,23.40
2017-07-10T19:10:09.949Z,23.30
2017-07-10T19:12:37.474Z,23.10
2017-07-10T19:15:05.257Z,22.80
2017-07-10T19:17:32.781Z,22.80
2017-07-10T19:20:00.284Z,22.70
2017-07-10T19:22:27.820Z,22.70
2017-07-10T19:24:55.335Z,22.70
2017-07-10T19:27:23.118Z,22.60
2017-07-10T19:29:50.640Z,22.60
2017-07-10T19:32:18.172Z,22.60
2017-07-10T19:34:45.698Z,22.50
2017-07-10T19:37:13.225Z,22.40
2017-07-10T19:39:44.259Z,22.30
2017-07-10T19:42:11.822Z,22.30
2017-07-10T19:44:39.336Z,22.10
2017-07-10T19:47:06.865Z,22.00
2017-07-10T19:49:34.372Z,22.10
2017-07-10T19:52:02.161Z,22.10
2017-07-10T19:54:29.687Z,22.00
2017-07-10T19:56:57.207Z,22.00
2017-07-10T19:59:24.749Z,22.00
2017-07-10T20:01:52.268Z,21.90
2017-07-10T20:04:20.144Z,21.80
2017-07-10T20:06:48.029Z,21.80
2017-07-10T20:09:16.200Z,21.80
2017-07-10T20:11:43.798Z,21.80
2017-07-10T20:14:13.381Z,21.90
2017-07-10T20:16:41.201Z,21.80
2017-07-10T20:19:08.751Z,21.80
2017-07-10T20:21:36.363Z,21.80
2017-07-10T20:24:04.037Z,21.70
2017-07-10T20:26:32.657Z,21.70
2017-07-10T20:29:00.781Z,21.70
2017-07-10T20:31:28.469Z,21.70
2017-07-10T20:33:56.160Z,21.70
2017-07-10T20:36:27.645Z,21.70
2017-07-10T20:38:55.386Z,21.70
2017-07-10T20:41:23.356Z,21.70
2017-07-10T20:43:51.447Z,21.60
2017-07-10T20:46:19.058Z,21.70
2017-07-10T20:48:46.639Z,21.70
2017-07-10T20:51:14.151Z,21.70
2017-07-10T20:53:42.093Z,21.70
2017-07-10T20:56:09.627Z,21.70
2017-07-10T20:58:37.148Z,21.80
2017-07-10T21:01:04.724Z,21.90
2017-07-10T21:03:32.309Z,21.90
2017-07-10T21:06:00.229Z,21.80
2017-07-10T21:08:27.908Z,21.70
2017-07-10T21:10:55.626Z,21.70
2017-07-10T21:13:23.292Z,21.70
2017-07-10T21:15:50.883Z,21.70
2017-07-10T21:18:18.808Z,21.70
2017-07-10T21:20:46.435Z,21.70
2017-07-10T21:23:14.080Z,21.70
2017-07-10T21:25:41.659Z,21.70
2017-07-10T21:28:09.577Z,21.70
2017-07-10T21:30:37.528Z,21.70
2017-07-10T21:33:05.164Z,21.60
2017-07-10T21:35:32.888Z,21.40
2017-07-10T21:38:00.503Z,21.20
2017-07-10T21:40:28.232Z,20.60
2017-07-10T21:42:56.186Z,19.90
2017-07-10T21:45:23.857Z,19.60
2017-07-10T21:47:51.539Z,19.60
2017-07-10T21:50:19.209Z,19.50
2017-07-10T21:52:46.909Z,19.60
2017-07-10T21:55:14.799Z,19.50
2017-07-10T21:57:43.208Z,19.50
2017-07-10T22:00:10.871Z,19.40
2017-07-10T22:02:38.559Z,19.30
2017-07-10T22:05:06.273Z,19.40
2017-07-10T22:07:34.335Z,19.20
2017-07-10T22:10:02.061Z,19.00
2017-07-10T22:12:29.583Z,18.80
2017-07-10T22:14:57.113Z,18.70
2017-07-10T22:17:24.623Z,18.70
2017-07-10T22:19:52.408Z,18.60
2017-07-10T22:22:19.910Z,18.50
2017-07-10T22:24:47.434Z,18.30
2017-07-10T22:27:14.967Z,18.30
2017-07-10T22:29:42.506Z,18.20
2017-07-10T22:32:10.300Z,18.10
2017-07-10T22:34:37.813Z,18.10
2017-07-10T22:37:05.369Z,18.10
2017-07-10T22:39:32.889Z,18.10
2017-07-10T22:42:00.411Z,18.20
2017-07-10T22:44:28.401Z,18.10
2017-07-10T22:46:56.036Z,18.10
2017-07-10T22:49:23.550Z,18.10
2017-07-10T22:51:51.088Z,18.00
2017-07-10T22:54:18.948Z,18.00
2017-07-10T22:56:46.752Z,18.00
2017-07-10T22:59:14.255Z,17.90
2017-07-10T23:01:41.771Z,17.90
2017-07-10T23:04:09.301Z,17.80
2017-07-10T23:06:36.816Z,17.80
2017-07-10T23:09:04.424Z,17.70
2017-07-10T23:11:31.920Z,17.60
2017-07-10T23:13:59.725Z,17.70
2017-07-10T23:16:27.240Z,17.70
2017-07-10T23:18:54.789Z,17.50
2017-07-10T23:21:22.602Z,17.50
2017-07-10T23:23:50.307Z,17.40
2017-07-10T23:26:17.891Z,17.50
2017-07-10T23:28:45.683Z,17.50
2017-07-10T23:31:13.207Z,17.50
2017-07-10T23:33:40.726Z,17.40
2017-07-10T23:36:08.502Z,17.40
2017-07-10T23:38:36.019Z,17.40
2017-07-10T23:41:03.541Z,17.10
2017-07-10T23:43:31.334Z,16.90
2017-07-10T23:45:58.842Z,16.80
2017-07-10T23:48:26.362Z,16.80
2017-07-10T23:50:54.165Z,16.70
2017-07-10T23:53:21.700Z,16.70
2017-07-10T23:55:49.206Z,16.60
2017-07-10T23:58:16.996Z,16.60
